createdAt,value
2019-03-31T00:01:12.002Z,7.03
2019-03-31T00:03:41.946Z,6.94
2019-03-31T00:06:11.859Z,7.02
2019-03-31T00:08:41.947Z,6.90
2019-03-31T00:11:11.961Z,6.90
2019-03-31T00:13:41.899Z,6.91
2019-03-31T00:16:11.868Z,6.86
2019-03-31T00:18:41.873Z,6.79
2019-03-31T00:21:11.823Z,6.71
2019-03-31T00:23:42.039Z,6.70
2019-03-31T00:26:12.059Z,6.70
2019-03-31T00:28:42.001Z,6.74
2019-03-31T00:31:22.027Z,6.70
2019-03-31T00:33:43.740Z,6.58
2019-03-31T00:36:13.765Z,6.54
2019-03-31T00:38:43.872Z,6.51
2019-03-31T00:41:13.808Z,6.41
2019-03-31T00:43:43.904Z,6.43
2019-03-31T00:46:14.118Z,6.42
2019-03-31T00:48:44.046Z,6.51
2019-03-31T00:51:13.973Z,6.52
2019-03-31T00:53:44.048Z,6.47
2019-03-31T00:56:14.091Z,6.49
2019-03-31T00:58:44.023Z,6.43
2019-03-31T01:01:36.658Z,6.33
2019-03-31T01:04:03.836Z,6.22
2019-03-31T01:06:34.922Z,6.19
2019-03-31T01:09:08.435Z,6.24
2019-03-31T01:11:38.560Z,6.25
2019-03-31T01:14:08.583Z,6.19
2019-03-31T01:16:38.587Z,6.11
2019-03-31T01:19:10.487Z,6.11
2019-03-31T01:21:40.485Z,6.10
2019-03-31T01:24:10.582Z,6.06
2019-03-31T01:26:41.736Z,5.92
2019-03-31T01:29:13.256Z,5.83
2019-03-31T01:31:50.177Z,5.80
2019-03-31T01:34:15.844Z,5.73
2019-03-31T01:36:45.763Z,5.71
2019-03-31T01:39:16.037Z,5.65
2019-03-31T01:41:45.993Z,5.56
2019-03-31T01:44:16.209Z,5.41
2019-03-31T01:46:46.412Z,5.33
2019-03-31T01:49:16.342Z,5.31
2019-03-31T01:51:46.269Z,5.27
2019-03-31T01:54:16.444Z,5.25
2019-03-31T01:56:46.468Z,5.20
2019-03-31T01:59:16.678Z,5.18
2019-03-31T02:01:46.738Z,5.17
2019-03-31T02:04:16.780Z,5.13
2019-03-31T02:06:46.801Z,5.02
2019-03-31T02:09:16.771Z,4.92
2019-03-31T02:11:46.708Z,4.87
2019-03-31T02:14:16.741Z,4.80
2019-03-31T02:16:46.950Z,4.71
2019-03-31T02:19:16.893Z,4.64
2019-03-31T02:21:47.201Z,4.61
2019-03-31T02:24:17.183Z,4.68
2019-03-31T02:26:47.123Z,4.69
2019-03-31T02:29:17.144Z,4.68
2019-03-31T02:31:47.269Z,4.61
2019-03-31T02:34:17.205Z,4.55
2019-03-31T02:36:47.128Z,4.45
2019-03-31T02:39:17.340Z,4.40
2019-03-31T02:41:47.465Z,4.42
2019-03-31T02:44:17.803Z,4.45
2019-03-31T02:46:47.780Z,4.53
2019-03-31T02:49:17.814Z,4.51
2019-03-31T02:51:47.915Z,4.52
2019-03-31T02:54:17.873Z,4.55
2019-03-31T02:56:47.961Z,4.52
2019-03-31T02:59:20.240Z,4.54
2019-03-31T03:01:51.451Z,4.50
2019-03-31T03:04:23.068Z,4.51
2019-03-31T03:06:55.926Z,4.52
2019-03-31T03:09:29.527Z,4.43
2019-03-31T03:12:01.428Z,4.44
2019-03-31T03:14:34.748Z,4.53
2019-03-31T03:17:04.943Z,4.53
2019-03-31T03:19:34.863Z,4.55
2019-03-31T03:22:04.911Z,4.41
2019-03-31T03:24:34.953Z,4.48
2019-03-31T03:27:05.588Z,4.64
2019-03-31T03:29:35.521Z,4.51
2019-03-31T03:32:05.492Z,4.38
2019-03-31T03:34:35.717Z,4.37
2019-03-31T03:37:05.796Z,4.38
2019-03-31T03:39:35.720Z,4.46
2019-03-31T03:42:05.848Z,4.53
2019-03-31T03:44:35.771Z,4.55
2019-03-31T03:47:05.734Z,4.44
2019-03-31T03:49:35.943Z,4.57
2019-03-31T03:52:05.962Z,4.56
2019-03-31T03:54:35.926Z,4.52
2019-03-31T03:57:05.897Z,4.40
2019-03-31T03:59:36.256Z,4.39
2019-03-31T04:02:06.271Z,4.32
2019-03-31T04:04:36.268Z,4.31
2019-03-31T04:07:06.201Z,4.17
2019-03-31T04:09:36.224Z,4.12
2019-03-31T04:12:06.530Z,4.09
2019-03-31T04:14:36.455Z,4.08
2019-03-31T04:17:06.417Z,4.04
2019-03-31T04:19:36.483Z,4.05
2019-03-31T04:22:06.410Z,3.99
2019-03-31T04:24:36.429Z,4.08
2019-03-31T04:27:06.493Z,4.20
2019-03-31T04:29:36.480Z,4.28
2019-03-31T04:32:06.483Z,4.37
2019-03-31T04:34:36.554Z,4.41
2019-03-31T04:37:06.729Z,4.56
2019-03-31T04:39:36.647Z,4.54
2019-03-31T04:42:06.770Z,4.55
2019-03-31T04:44:36.807Z,4.57
2019-03-31T04:47:07.173Z,4.61
2019-03-31T04:49:37.281Z,4.69
2019-03-31T04:52:07.209Z,4.81
2019-03-31T04:54:37.250Z,4.93
2019-03-31T04:57:07.293Z,5.02
2019-03-31T04:59:37.266Z,5.17
2019-03-31T05:02:08.243Z,5.37
2019-03-31T05:04:38.323Z,5.55
2019-03-31T05:07:08.355Z,5.65
2019-03-31T05:09:38.295Z,5.80
2019-03-31T05:12:08.406Z,5.90
2019-03-31T05:14:38.455Z,6.01
2019-03-31T05:17:08.468Z,6.07
2019-03-31T05:19:38.458Z,6.14
2019-03-31T05:22:08.400Z,6.19
2019-03-31T05:24:38.437Z,6.26
2019-03-31T05:27:08.650Z,6.32
2019-03-31T05:29:38.609Z,6.35
2019-03-31T05:32:08.542Z,6.35
2019-03-31T05:34:38.610Z,6.40
2019-03-31T05:37:08.614Z,6.45
2019-03-31T05:39:38.540Z,6.46
2019-03-31T05:42:08.574Z,6.61
2019-03-31T05:44:38.500Z,6.60
2019-03-31T05:47:08.532Z,6.73
2019-03-31T05:49:38.602Z,6.82
2019-03-31T05:52:08.622Z,6.92
2019-03-31T05:54:38.533Z,7.00
2019-03-31T05:57:08.535Z,7.08
2019-03-31T05:59:38.576Z,7.18
2019-03-31T06:02:08.614Z,7.27
2019-03-31T06:04:39.509Z,7.36
2019-03-31T06:07:09.438Z,7.45
2019-03-31T06:09:40.530Z,7.41
2019-03-31T06:12:10.569Z,7.47
2019-03-31T06:14:40.521Z,7.67
2019-03-31T06:17:11.440Z,7.82
2019-03-31T06:19:41.979Z,7.84
2019-03-31T06:22:11.751Z,7.84
2019-03-31T06:24:44.848Z,7.99
2019-03-31T06:27:15.931Z,8.09
2019-03-31T06:29:54.093Z,8.18
2019-03-31T06:32:24.087Z,8.25
2019-03-31T06:34:55.096Z,8.34
2019-03-31T06:37:25.667Z,8.43
2019-03-31T06:39:55.663Z,8.53
2019-03-31T06:42:25.600Z,8.64
2019-03-31T06:44:55.643Z,8.76
2019-03-31T06:47:25.719Z,8.87
2019-03-31T06:49:55.735Z,8.98
2019-03-31T06:52:25.683Z,9.18
2019-03-31T06:54:57.493Z,9.33
2019-03-31T06:57:27.542Z,9.43
2019-03-31T06:59:57.953Z,9.55
2019-03-31T07:02:28.645Z,9.68
2019-03-31T07:05:01.092Z,9.68
2019-03-31T07:07:32.755Z,9.61
2019-03-31T07:10:06.123Z,9.89
2019-03-31T07:12:37.660Z,9.95
2019-03-31T07:15:08.748Z,10.18
2019-03-31T07:17:39.464Z,10.30
2019-03-31T07:20:11.176Z,10.49
2019-03-31T07:22:45.340Z,10.69
2019-03-31T07:25:16.339Z,10.83
2019-03-31T07:27:47.522Z,11.05
2019-03-31T07:30:19.861Z,11.24
2019-03-31T07:32:49.866Z,11.39
2019-03-31T07:35:21.354Z,11.60
2019-03-31T07:37:51.837Z,11.73
2019-03-31T07:40:22.720Z,11.85
2019-03-31T07:42:53.296Z,11.99
2019-03-31T07:45:48.451Z,12.15
2019-03-31T07:48:22.522Z,12.25
2019-03-31T07:50:52.657Z,12.37
2019-03-31T07:53:23.018Z,12.39
2019-03-31T07:55:57.384Z,12.51
2019-03-31T07:58:31.158Z,12.74
2019-03-31T08:01:02.735Z,12.93
2019-03-31T08:03:34.039Z,13.03
2019-03-31T08:06:04.555Z,13.09
2019-03-31T08:08:34.863Z,13.34
2019-03-31T08:11:17.192Z,13.51
2019-03-31T08:13:48.555Z,13.60
2019-03-31T08:16:20.090Z,13.75
2019-03-31T08:18:50.536Z,13.81
2019-03-31T08:21:20.742Z,13.99
2019-03-31T08:23:56.062Z,14.11
2019-03-31T08:26:26.441Z,14.23
2019-03-31T08:28:58.574Z,14.40
2019-03-31T08:31:28.214Z,14.52
2019-03-31T08:34:00.211Z,14.63
2019-03-31T08:36:30.447Z,14.79
2019-03-31T08:39:02.445Z,14.83
2019-03-31T08:41:42.976Z,14.81
2019-03-31T08:44:15.717Z,14.68
2019-03-31T08:46:47.442Z,14.76
2019-03-31T08:49:17.435Z,14.92
2019-03-31T08:51:50.279Z,15.08
2019-03-31T08:54:20.834Z,15.12
2019-03-31T08:56:50.756Z,15.18
2019-03-31T08:59:20.727Z,15.21
2019-03-31T09:01:50.770Z,15.31
2019-03-31T09:04:20.715Z,15.49
2019-03-31T09:06:50.755Z,15.63
2019-03-31T09:09:21.229Z,15.86
2019-03-31T09:11:51.661Z,16.05
2019-03-31T09:14:21.604Z,16.17
2019-03-31T09:16:54.009Z,15.95
2019-03-31T09:19:24.053Z,16.05
2019-03-31T09:21:54.023Z,16.16
2019-03-31T09:24:23.989Z,15.88
2019-03-31T09:26:54.323Z,16.10
2019-03-31T09:29:26.410Z,16.35
2019-03-31T09:31:56.807Z,16.45
2019-03-31T09:34:27.143Z,16.49
2019-03-31T09:36:57.198Z,16.61
2019-03-31T09:39:29.340Z,16.70
2019-03-31T09:41:59.285Z,16.85
2019-03-31T09:44:30.438Z,16.90
2019-03-31T09:47:05.082Z,16.74
2019-03-31T09:49:37.680Z,16.66
2019-03-31T09:52:09.775Z,16.72
2019-03-31T09:54:45.844Z,16.72
2019-03-31T09:57:18.183Z,16.74
2019-03-31T09:59:55.699Z,16.90
2019-03-31T10:02:27.036Z,17.04
2019-03-31T10:05:04.806Z,17.08
2019-03-31T10:07:38.170Z,16.95
2019-03-31T10:10:16.326Z,16.74
2019-03-31T10:12:50.634Z,16.92
2019-03-31T10:15:24.442Z,17.15
2019-03-31T10:17:56.722Z,17.24
2019-03-31T10:20:31.353Z,17.31
2019-03-31T10:23:05.110Z,17.51
2019-03-31T10:25:37.456Z,17.39
2019-03-31T10:28:07.984Z,17.17
2019-03-31T10:30:39.209Z,17.34
2019-03-31T10:33:16.323Z,17.22
2019-03-31T10:35:46.727Z,17.10
2019-03-31T10:38:23.383Z,17.06
2019-03-31T10:40:53.703Z,17.21
2019-03-31T10:43:23.770Z,17.29
2019-03-31T10:45:55.015Z,17.48
2019-03-31T10:48:38.466Z,17.65
2019-03-31T10:51:10.378Z,17.76
2019-03-31T10:53:41.014Z,17.86
2019-03-31T10:56:11.963Z,18.00
2019-03-31T10:58:43.178Z,17.76
2019-03-31T11:01:13.595Z,17.84
2019-03-31T11:03:45.845Z,18.04
2019-03-31T11:06:15.984Z,18.16
2019-03-31T11:08:46.947Z,18.30
2019-03-31T11:11:17.411Z,18.28
2019-03-31T11:13:49.210Z,17.85
2019-03-31T11:16:20.083Z,17.71
2019-03-31T11:18:50.826Z,17.78
2019-03-31T11:21:33.235Z,17.91
2019-03-31T11:24:03.713Z,17.81
2019-03-31T11:26:34.234Z,17.82
2019-03-31T11:29:11.962Z,17.84
2019-03-31T11:31:47.544Z,17.75
2019-03-31T11:34:23.212Z,17.70
2019-03-31T11:37:13.288Z,17.59
2019-03-31T11:39:37.248Z,17.74
2019-03-31T11:42:07.382Z,17.82
2019-03-31T11:44:38.230Z,17.70
2019-03-31T11:47:09.487Z,17.83
2019-03-31T11:49:39.810Z,17.94
2019-03-31T11:52:09.849Z,18.15
2019-03-31T11:54:40.428Z,18.27
2019-03-31T11:57:11.831Z,18.01
2019-03-31T11:59:42.702Z,17.95
2019-03-31T12:02:26.825Z,18.34
2019-03-31T12:04:50.968Z,18.34
2019-03-31T12:07:28.181Z,17.74
2019-03-31T12:09:56.581Z,17.74
2019-03-31T12:12:28.564Z,17.86
2019-03-31T12:15:00.618Z,18.01
2019-03-31T12:17:32.901Z,18.19
2019-03-31T12:20:04.131Z,18.41
2019-03-31T12:22:35.049Z,18.46
2019-03-31T12:28:22.164Z,18.49
2019-03-31T12:30:53.745Z,18.68
2019-03-31T12:33:23.821Z,18.68
2019-03-31T12:35:58.241Z,18.79
2019-03-31T12:38:28.572Z,18.79
2019-03-31T12:40:59.124Z,18.61
2019-03-31T12:43:29.745Z,18.73
2019-03-31T12:46:02.583Z,18.65
2019-03-31T12:48:34.679Z,18.54
2019-03-31T12:51:05.412Z,18.58
2019-03-31T12:53:37.254Z,18.76
2019-03-31T12:56:09.232Z,18.29
2019-03-31T12:58:39.728Z,18.40
2019-03-31T13:01:10.312Z,18.40
2019-03-31T13:03:41.467Z,18.53
2019-03-31T13:06:11.424Z,18.68
2019-03-31T13:08:43.699Z,18.68
2019-03-31T13:11:14.183Z,18.80
2019-03-31T13:13:46.060Z,18.88
2019-03-31T13:16:16.437Z,18.99
2019-03-31T13:18:46.402Z,18.99
2019-03-31T13:21:16.703Z,18.67
2019-03-31T13:23:48.348Z,18.43
2019-03-31T13:26:19.260Z,18.41
2019-03-31T13:28:49.611Z,18.41
2019-03-31T13:31:19.740Z,18.51
2019-03-31T13:33:50.234Z,18.49
2019-03-31T13:36:20.211Z,18.57
2019-03-31T13:38:56.345Z,18.75
2019-03-31T13:41:26.391Z,18.75
2019-03-31T13:43:57.376Z,18.80
2019-03-31T13:46:27.591Z,18.93
2019-03-31T13:48:58.180Z,18.86
2019-03-31T13:51:28.376Z,18.97
2019-03-31T13:54:01.572Z,19.08
2019-03-31T13:56:33.013Z,19.07
2019-03-31T13:59:04.536Z,19.10
2019-03-31T14:01:38.770Z,19.19
2019-03-31T14:04:08.742Z,19.23
2019-03-31T14:06:42.105Z,19.25
2019-03-31T14:09:14.491Z,19.26
2019-03-31T14:11:50.851Z,19.18
2019-03-31T14:14:25.453Z,19.15
2019-03-31T14:16:55.921Z,19.08
2019-03-31T14:19:27.744Z,19.08
2019-03-31T14:22:00.402Z,19.14
2019-03-31T14:24:50.207Z,19.13
2019-03-31T14:27:21.318Z,19.15
2019-03-31T14:29:52.175Z,19.01
2019-03-31T14:32:22.414Z,19.11
2019-03-31T14:34:55.783Z,19.09
2019-03-31T14:37:27.839Z,18.91
2019-03-31T14:39:59.908Z,18.81
2019-03-31T14:42:30.431Z,18.74
2019-03-31T14:45:01.222Z,18.74
2019-03-31T14:47:31.495Z,18.91
2019-03-31T14:50:40.885Z,18.78
2019-03-31T14:53:37.789Z,18.78
2019-03-31T14:56:11.704Z,18.76
2019-03-31T14:58:41.632Z,18.69
2019-03-31T15:01:12.060Z,18.82
2019-03-31T15:03:42.419Z,18.83
2019-03-31T15:06:12.462Z,18.88
2019-03-31T15:08:54.186Z,18.89
2019-03-31T15:11:21.796Z,18.89
2019-03-31T15:13:50.780Z,18.83
2019-03-31T15:16:20.745Z,18.84
2019-03-31T15:18:53.157Z,18.74
2019-03-31T15:21:24.822Z,18.70
2019-03-31T15:23:55.092Z,18.55
2019-03-31T15:26:25.094Z,18.55
2019-03-31T15:28:55.424Z,18.55
2019-03-31T15:31:28.324Z,18.40
2019-03-31T15:34:00.404Z,18.40
2019-03-31T15:36:30.341Z,18.34
2019-03-31T15:39:08.616Z,18.29
2019-03-31T15:41:36.820Z,18.42
2019-03-31T15:44:06.982Z,18.35
2019-03-31T15:46:38.800Z,18.31
2019-03-31T15:49:09.038Z,18.27
2019-03-31T15:51:39.032Z,18.34
2019-03-31T15:54:09.070Z,18.27
2019-03-31T15:56:39.078Z,18.13
2019-03-31T15:59:11.626Z,18.00
2019-03-31T16:01:44.066Z,18.01
2019-03-31T16:04:14.020Z,17.93
2019-03-31T16:06:44.038Z,17.90
2019-03-31T16:09:23.377Z,17.85
2019-03-31T16:11:53.646Z,17.77
2019-03-31T16:14:15.965Z,17.74
2019-03-31T16:16:45.620Z,17.77
2019-03-31T16:19:15.126Z,17.71
2019-03-31T16:21:44.570Z,17.62
2019-03-31T16:24:14.153Z,17.60
2019-03-31T16:26:45.498Z,17.43
2019-03-31T16:29:15.677Z,17.41
2019-03-31T16:31:45.195Z,17.32
2019-03-31T16:34:14.696Z,17.23
2019-03-31T16:36:44.162Z,17.02
2019-03-31T16:39:13.584Z,16.88
2019-03-31T16:41:43.046Z,16.86
2019-03-31T16:44:12.936Z,16.85
2019-03-31T16:46:43.727Z,16.76
2019-03-31T16:49:13.152Z,16.52
2019-03-31T16:51:42.627Z,16.35
2019-03-31T16:54:13.695Z,16.25
2019-03-31T16:56:43.486Z,16.14
2019-03-31T16:59:13.277Z,16.08
2019-03-31T17:01:42.926Z,15.92
2019-03-31T17:04:12.445Z,15.79
2019-03-31T17:06:42.008Z,15.63
2019-03-31T17:09:11.625Z,15.54
2019-03-31T17:11:41.064Z,15.45
2019-03-31T17:14:10.505Z,15.36
2019-03-31T17:16:40.025Z,15.26
2019-03-31T17:19:09.530Z,15.17
2019-03-31T17:21:39.006Z,15.09
2019-03-31T17:24:09.338Z,14.96
2019-03-31T17:26:38.795Z,14.92
2019-03-31T17:29:08.397Z,14.85
2019-03-31T17:31:37.928Z,14.75
2019-03-31T17:34:07.334Z,14.68
2019-03-31T17:36:36.814Z,14.61
2019-03-31T17:39:17.069Z,14.53
2019-03-31T17:41:47.563Z,14.45
2019-03-31T17:44:28.239Z,14.36
2019-03-31T17:47:02.083Z,14.29
2019-03-31T17:49:31.614Z,14.21
2019-03-31T17:52:02.415Z,14.22
2019-03-31T17:54:32.436Z,14.46
2019-03-31T17:57:09.453Z,14.57
2019-03-31T17:59:40.891Z,14.79
2019-03-31T18:02:10.961Z,14.57
2019-03-31T18:04:44.133Z,14.44
2019-03-31T18:07:13.979Z,14.41
2019-03-31T18:09:46.529Z,14.39
2019-03-31T18:12:22.788Z,14.35
2019-03-31T18:14:52.283Z,14.37
2019-03-31T18:17:21.720Z,14.26
2019-03-31T18:19:54.093Z,14.21
2019-03-31T18:22:24.148Z,14.18
2019-03-31T18:24:55.875Z,14.03
2019-03-31T18:27:25.358Z,13.93
2019-03-31T18:29:55.535Z,13.88
2019-03-31T18:32:24.994Z,13.87
2019-03-31T18:34:54.425Z,13.82
2019-03-31T18:37:24.265Z,13.67
2019-03-31T18:39:54.650Z,13.66
2019-03-31T18:42:26.907Z,13.55
2019-03-31T18:44:56.310Z,13.38
2019-03-31T18:47:26.446Z,13.33
2019-03-31T18:49:56.089Z,13.24
2019-03-31T18:52:28.051Z,13.16
2019-03-31T18:55:03.649Z,13.06
2019-03-31T18:57:43.895Z,12.96
2019-03-31T19:00:36.489Z,12.89
2019-03-31T19:03:23.422Z,12.83
2019-03-31T19:06:07.150Z,12.75
2019-03-31T19:09:05.111Z,12.73
2019-03-31T19:12:06.074Z,12.70
2019-03-31T19:15:13.554Z,12.68
2019-03-31T19:18:04.992Z,12.78
2019-03-31T19:20:52.225Z,13.04
2019-03-31T19:23:35.126Z,12.98
2019-03-31T19:26:17.389Z,12.91
2019-03-31T19:29:02.925Z,12.96
2019-03-31T19:31:44.461Z,12.94
2019-03-31T19:34:26.466Z,12.74
2019-03-31T19:37:04.054Z,12.82
2019-03-31T19:39:53.595Z,12.86
2019-03-31T19:42:41.965Z,12.86
2019-03-31T19:45:29.339Z,12.89
2019-03-31T19:48:18.444Z,13.28
2019-03-31T19:51:05.554Z,13.43
2019-03-31T19:53:56.914Z,13.34
2019-03-31T19:56:54.310Z,13.29
2019-03-31T20:00:00.914Z,13.33
2019-03-31T20:02:37.220Z,13.28
2019-03-31T20:05:17.398Z,13.25
2019-03-31T20:07:57.263Z,13.21
2019-03-31T20:10:53.638Z,13.12
2019-03-31T20:13:41.988Z,13.04
2019-03-31T20:16:30.345Z,13.01
2019-03-31T20:19:28.211Z,12.93
2019-03-31T20:22:05.395Z,12.78
2019-03-31T20:24:49.973Z,12.70
2019-03-31T20:27:25.479Z,12.68
2019-03-31T20:30:16.587Z,12.51
2019-03-31T20:33:13.958Z,12.36
2019-03-31T20:36:03.300Z,12.29
2019-03-31T20:38:43.446Z,12.16
2019-03-31T20:41:25.239Z,12.16
2019-03-31T20:43:57.934Z,12.09
2019-03-31T20:46:27.429Z,11.97
2019-03-31T20:48:56.944Z,11.86
2019-03-31T20:51:26.353Z,11.78
2019-03-31T20:53:55.827Z,11.73
2019-03-31T20:56:25.366Z,11.59
2019-03-31T20:58:54.800Z,11.52
2019-03-31T21:01:24.505Z,11.43
2019-03-31T21:03:53.998Z,11.26
2019-03-31T21:06:23.515Z,11.23
2019-03-31T21:08:52.952Z,11.04
2019-03-31T21:11:22.533Z,10.91
2019-03-31T21:13:51.971Z,10.78
2019-03-31T21:16:21.470Z,10.63
2019-03-31T21:18:51.724Z,10.52
2019-03-31T21:21:21.118Z,10.47
2019-03-31T21:23:50.369Z,10.43
2019-03-31T21:26:20.047Z,10.38
2019-03-31T21:28:52.184Z,10.34
2019-03-31T21:31:21.579Z,10.34
2019-03-31T21:33:51.079Z,10.29
2019-03-31T21:36:21.809Z,10.32
2019-03-31T21:38:52.300Z,10.38
2019-03-31T21:41:21.889Z,10.40
2019-03-31T21:43:51.779Z,10.34
2019-03-31T21:46:22.150Z,10.19
2019-03-31T21:48:51.758Z,10.14
2019-03-31T21:51:21.148Z,10.06
2019-03-31T21:53:50.590Z,9.95
2019-03-31T21:56:20.132Z,10.01
2019-03-31T21:58:49.573Z,10.05
2019-03-31T22:01:19.505Z,10.07
2019-03-31T22:03:50.572Z,10.05
2019-03-31T22:06:19.941Z,9.97
2019-03-31T22:08:49.378Z,9.95
2019-03-31T22:11:23.005Z,9.93
2019-03-31T22:13:53.441Z,9.81
2019-03-31T22:16:23.263Z,9.81
2019-03-31T22:18:52.883Z,9.85
2019-03-31T22:21:22.828Z,9.84
2019-03-31T22:23:58.194Z,9.73
2019-03-31T22:26:23.528Z,9.60
2019-03-31T22:28:53.155Z,9.55
2019-03-31T22:31:22.666Z,9.42
2019-03-31T22:33:52.693Z,9.33
2019-03-31T22:36:22.175Z,9.25
2019-03-31T22:38:53.322Z,9.17
2019-03-31T22:41:24.399Z,9.11
2019-03-31T22:43:55.272Z,9.09
2019-03-31T22:46:24.755Z,9.08
2019-03-31T22:48:54.210Z,9.08
2019-03-31T22:51:25.162Z,9.08
2019-03-31T22:53:54.586Z,9.10
2019-03-31T22:56:24.118Z,9.12
2019-03-31T22:58:53.541Z,8.99
2019-03-31T23:01:22.929Z,9.03
2019-03-31T23:03:52.693Z,9.02
2019-03-31T23:06:22.179Z,9.06
2019-03-31T23:08:51.633Z,9.21
2019-03-31T23:11:21.064Z,9.22
2019-03-31T23:13:50.503Z,9.18
2019-03-31T23:16:19.974Z,9.15
2019-03-31T23:18:49.815Z,9.07
2019-03-31T23:21:19.819Z,8.95
2019-03-31T23:23:49.233Z,8.84
2019-03-31T23:26:18.805Z,8.68
2019-03-31T23:28:48.243Z,8.62
2019-03-31T23:31:18.814Z,8.63
2019-03-31T23:33:48.427Z,8.57
2019-03-31T23:36:17.827Z,8.50
2019-03-31T23:38:47.267Z,8.53
2019-03-31T23:41:17.081Z,8.47
2019-03-31T23:43:46.741Z,8.45
2019-03-31T23:46:16.135Z,8.43
2019-03-31T23:48:47.606Z,8.43
2019-03-31T23:51:17.080Z,8.42
2019-03-31T23:53:46.500Z,8.37
2019-03-31T23:56:15.941Z,8.33
2019-03-31T23:58:45.766Z,8.26
